createdAt,value
2019-02-26T00:00:47.372Z,18.57
2019-02-26T00:02:23.688Z,17.90
2019-02-26T00:03:58.585Z,19.17
2019-02-26T00:05:33.045Z,20.70
2019-02-26T00:07:07.207Z,26.37
2019-02-26T00:08:40.902Z,22.77
2019-02-26T00:10:14.577Z,18.83
2019-02-26T00:11:48.251Z,17.83
2019-02-26T00:13:23.416Z,15.90
2019-02-26T00:14:59.582Z,15.83
2019-02-26T00:16:35.596Z,12.90
2019-02-26T00:18:11.527Z,14.60
2019-02-26T00:19:44.465Z,15.87
2019-02-26T00:21:19.902Z,14.97
2019-02-26T00:22:55.246Z,14.73
2019-02-26T00:24:30.790Z,16.43
2019-02-26T00:26:04.558Z,17.03
2019-02-26T00:27:39.703Z,16.70
2019-02-26T00:29:13.386Z,16.40
2019-02-26T00:30:47.042Z,17.57
2019-02-26T00:32:21.101Z,17.17
2019-02-26T00:33:54.821Z,16.60
2019-02-26T00:35:28.518Z,20.97
2019-02-26T00:37:03.942Z,21.13
2019-02-26T00:38:39.854Z,21.50
2019-02-26T00:40:14.522Z,20.37
2019-02-26T00:41:51.304Z,19.83
2019-02-26T00:43:27.381Z,24.63
2019-02-26T00:45:02.363Z,22.37
2019-02-26T00:46:36.820Z,21.73
2019-02-26T00:48:10.331Z,21.17
2019-02-26T00:49:46.211Z,21.37
2019-02-26T00:51:20.923Z,20.40
2019-02-26T00:52:57.054Z,22.57
2019-02-26T00:54:31.923Z,26.07
2019-02-26T00:56:07.827Z,25.20
2019-02-26T00:57:42.984Z,26.87
2019-02-26T00:59:16.988Z,25.40
2019-02-26T01:00:50.632Z,26.87
2019-02-26T01:02:24.304Z,28.47
2019-02-26T01:04:03.234Z,28.40
2019-02-26T01:05:38.733Z,49.20
2019-02-26T01:07:12.228Z,49.07
2019-02-26T01:08:47.068Z,49.03
2019-02-26T01:10:21.680Z,36.20
2019-02-26T01:11:56.181Z,25.23
2019-02-26T01:13:30.540Z,25.53
2019-02-26T01:15:12.160Z,20.50
2019-02-26T01:16:48.283Z,20.00
2019-02-26T01:18:22.891Z,17.97
2019-02-26T01:19:58.868Z,17.40
2019-02-26T01:21:34.164Z,20.00
2019-02-26T01:23:08.761Z,18.37
2019-02-26T01:24:42.734Z,19.60
2019-02-26T01:26:16.460Z,18.63
2019-02-26T01:27:51.069Z,20.77
2019-02-26T01:29:27.638Z,23.40
2019-02-26T01:31:02.627Z,23.77
2019-02-26T01:32:36.457Z,20.97
2019-02-26T01:34:11.986Z,22.47
2019-02-26T01:35:46.403Z,22.03
2019-02-26T01:37:20.043Z,20.93
2019-02-26T01:38:53.710Z,27.47
2019-02-26T01:40:27.694Z,25.23
2019-02-26T01:42:01.621Z,26.00
2019-02-26T01:43:35.310Z,26.57
2019-02-26T01:45:11.242Z,23.10
2019-02-26T01:46:44.912Z,20.80
2019-02-26T01:48:19.062Z,21.67
2019-02-26T01:49:52.800Z,16.67
2019-02-26T01:51:28.671Z,14.50
2019-02-26T01:53:02.589Z,15.73
2019-02-26T01:54:37.345Z,14.10
2019-02-26T01:56:11.880Z,14.47
2019-02-26T01:57:45.676Z,13.33
2019-02-26T01:59:19.326Z,12.60
2019-02-26T02:00:55.247Z,13.57
2019-02-26T02:02:30.277Z,13.13
2019-02-26T02:04:03.942Z,13.07
2019-02-26T02:05:37.652Z,14.03
2019-02-26T02:07:11.598Z,14.07
2019-02-26T02:08:45.802Z,17.13
2019-02-26T02:10:20.830Z,14.80
2019-02-26T02:11:57.375Z,16.03
2019-02-26T02:13:30.552Z,14.97
2019-02-26T02:15:10.115Z,14.47
2019-02-26T02:16:44.068Z,15.37
2019-02-26T02:18:18.087Z,13.77
2019-02-26T02:19:53.660Z,14.03
2019-02-26T02:21:30.434Z,13.90
2019-02-26T02:23:05.354Z,13.33
2019-02-26T02:24:39.258Z,13.93
2019-02-26T02:26:15.621Z,13.77
2019-02-26T02:27:51.801Z,12.67
2019-02-26T02:29:26.359Z,13.13
2019-02-26T02:31:00.145Z,12.53
2019-02-26T02:32:34.558Z,14.47
2019-02-26T02:34:08.402Z,13.67
2019-02-26T02:35:42.064Z,14.60
2019-02-26T02:37:19.173Z,15.03
2019-02-26T02:38:52.666Z,16.30
2019-02-26T02:40:26.295Z,15.57
2019-02-26T02:42:00.008Z,16.10
2019-02-26T02:43:33.773Z,16.03
2019-02-26T02:45:11.382Z,16.87
2019-02-26T02:46:46.693Z,17.83
2019-02-26T02:48:20.623Z,18.20
2019-02-26T02:49:54.271Z,18.60
2019-02-26T02:51:31.168Z,18.80
2019-02-26T02:53:04.022Z,20.50
2019-02-26T02:54:38.576Z,21.60
2019-02-26T02:56:15.336Z,20.47
2019-02-26T02:57:52.308Z,21.57
2019-02-26T02:59:24.424Z,17.27
2019-02-26T03:01:00.308Z,17.67
2019-02-26T03:02:37.486Z,22.10
2019-02-26T03:04:09.208Z,19.13
2019-02-26T03:05:43.832Z,18.23
2019-02-26T03:07:20.821Z,17.40
2019-02-26T03:08:53.632Z,17.50
2019-02-26T03:10:30.806Z,16.67
2019-02-26T03:12:02.929Z,15.97
2019-02-26T03:13:36.655Z,16.23
2019-02-26T03:15:13.146Z,15.80
2019-02-26T03:16:48.589Z,16.50
2019-02-26T03:18:22.833Z,18.33
2019-02-26T03:19:58.702Z,17.20
2019-02-26T03:21:31.838Z,16.90
2019-02-26T03:23:07.323Z,17.60
2019-02-26T03:24:41.381Z,19.43
2019-02-26T03:26:17.679Z,18.30
2019-02-26T03:27:51.011Z,18.17
2019-02-26T03:29:25.057Z,19.70
2019-02-26T03:30:58.809Z,19.70
2019-02-26T03:32:36.050Z,21.63
2019-02-26T03:34:10.458Z,26.27
2019-02-26T03:35:43.648Z,25.93
2019-02-26T03:37:17.321Z,27.47
2019-02-26T03:38:51.618Z,29.73
2019-02-26T03:40:27.043Z,27.70
2019-02-26T03:42:02.318Z,28.70
2019-02-26T03:43:37.107Z,36.23
2019-02-26T03:45:14.550Z,37.47
2019-02-26T03:46:48.171Z,43.73
2019-02-26T03:48:22.187Z,43.30
2019-02-26T03:49:55.883Z,42.47
2019-02-26T03:51:29.536Z,35.07
2019-02-26T03:53:03.177Z,32.50
2019-02-26T03:54:40.173Z,24.57
2019-02-26T03:56:14.789Z,20.20
2019-02-26T03:57:53.283Z,18.50
2019-02-26T03:59:24.284Z,17.60
2019-02-26T04:01:01.683Z,17.30
2019-02-26T04:02:33.919Z,18.03
2019-02-26T04:04:07.772Z,17.50
2019-02-26T04:05:41.565Z,17.47
2019-02-26T04:07:15.586Z,17.90
2019-02-26T04:08:51.082Z,22.77
2019-02-26T04:10:24.630Z,21.50
2019-02-26T04:11:58.393Z,20.83
2019-02-26T04:13:32.299Z,21.37
2019-02-26T04:15:14.020Z,18.30
2019-02-26T04:16:47.675Z,16.53
2019-02-26T04:18:21.372Z,15.90
2019-02-26T04:19:55.120Z,15.53
2019-02-26T04:21:48.161Z,16.93
2019-02-26T04:23:22.043Z,16.97
2019-02-26T04:25:01.426Z,17.17
2019-02-26T04:26:37.192Z,16.33
2019-02-26T04:28:27.236Z,16.77
2019-02-26T04:30:19.048Z,17.00
2019-02-26T04:32:15.034Z,16.83
2019-02-26T04:34:01.819Z,18.80
2019-02-26T04:35:37.960Z,19.03
2019-02-26T04:37:20.194Z,18.87
2019-02-26T04:39:18.398Z,20.27
2019-02-26T04:40:55.372Z,18.50
2019-02-26T04:42:38.408Z,20.10
2019-02-26T04:44:29.219Z,19.23
2019-02-26T04:46:25.544Z,18.20
2019-02-26T04:48:02.258Z,41.17
2019-02-26T04:49:38.509Z,28.13
2019-02-26T04:51:11.225Z,19.10
2019-02-26T04:52:45.380Z,20.53
2019-02-26T04:54:23.984Z,20.30
2019-02-26T04:55:54.600Z,18.23
2019-02-26T04:57:29.884Z,21.83
2019-02-26T04:59:06.226Z,18.80
2019-02-26T05:00:39.290Z,20.33
2019-02-26T05:02:12.951Z,29.20
2019-02-26T05:03:46.711Z,28.33
2019-02-26T05:05:22.420Z,23.03
2019-02-26T05:06:56.183Z,31.43
2019-02-26T05:08:32.272Z,44.70
2019-02-26T05:10:06.772Z,41.80
2019-02-26T05:11:40.863Z,39.43
2019-02-26T05:13:14.638Z,32.83
2019-02-26T05:14:48.270Z,25.33
2019-02-26T05:16:26.021Z,22.03
2019-02-26T05:17:57.513Z,17.67
2019-02-26T05:19:31.195Z,15.60
2019-02-26T05:21:07.496Z,17.90
2019-02-26T05:22:40.414Z,18.50
2019-02-26T05:24:15.718Z,19.10
2019-02-26T05:25:49.932Z,22.10
2019-02-26T05:27:24.932Z,21.80
2019-02-26T05:28:59.012Z,19.60
2019-02-26T05:30:32.918Z,21.30
2019-02-26T05:32:07.282Z,32.07
2019-02-26T05:33:41.970Z,21.90
2019-02-26T05:35:17.960Z,21.17
2019-02-26T05:36:51.064Z,27.77
2019-02-26T05:38:26.490Z,25.10
2019-02-26T05:40:00.383Z,35.97
2019-02-26T05:41:34.036Z,38.60
2019-02-26T05:43:08.026Z,35.63
2019-02-26T05:44:41.693Z,31.50
2019-02-26T05:46:16.778Z,31.90
2019-02-26T05:47:51.384Z,27.77
2019-02-26T05:49:26.386Z,24.43
2019-02-26T05:51:02.946Z,21.27
2019-02-26T05:52:35.974Z,21.47
2019-02-26T05:54:14.271Z,19.70
2019-02-26T05:55:48.772Z,20.40
2019-02-26T05:57:27.752Z,20.20
2019-02-26T05:58:56.481Z,19.10
2019-02-26T06:00:33.365Z,20.40
2019-02-26T06:02:06.298Z,21.80
2019-02-26T06:03:41.039Z,20.50
2019-02-26T06:05:17.675Z,20.57
2019-02-26T06:06:53.243Z,20.07
2019-02-26T06:08:32.335Z,20.50
2019-02-26T06:10:02.011Z,21.23
2019-02-26T06:11:38.565Z,27.30
2019-02-26T06:13:13.535Z,38.87
2019-02-26T06:14:47.058Z,38.83
2019-02-26T06:16:21.826Z,30.60
2019-02-26T06:17:57.013Z,33.98
2019-02-26T06:19:37.747Z,31.27
2019-02-26T06:21:13.818Z,33.33
2019-02-26T06:22:47.328Z,52.90
2019-02-26T06:24:24.387Z,57.60
2019-02-26T06:25:59.008Z,54.13
2019-02-26T06:27:32.921Z,52.10
2019-02-26T06:29:06.549Z,55.07
2019-02-26T06:30:40.209Z,48.87
2019-02-26T06:32:15.851Z,50.20
2019-02-26T06:33:50.658Z,51.07
2019-02-26T06:35:24.667Z,52.40
2019-02-26T06:37:01.308Z,46.83
2019-02-26T06:38:35.107Z,33.63
2019-02-26T06:40:11.459Z,34.93
2019-02-26T06:41:46.729Z,34.83
2019-02-26T06:43:20.522Z,39.63
2019-02-26T06:44:54.225Z,42.53
2019-02-26T06:46:29.346Z,42.47
2019-02-26T06:48:04.386Z,42.63
2019-02-26T06:49:38.141Z,45.00
2019-02-26T06:51:11.796Z,37.07
2019-02-26T06:52:47.688Z,36.03
2019-02-26T06:54:22.697Z,38.80
2019-02-26T06:56:00.766Z,39.07
2019-02-26T06:57:34.601Z,45.37
2019-02-26T06:59:12.253Z,45.97
2019-02-26T07:00:48.091Z,43.90
2019-02-26T07:02:21.513Z,54.57
2019-02-26T07:03:56.117Z,52.87
2019-02-26T07:05:30.943Z,56.50
2019-02-26T07:07:06.811Z,58.93
2019-02-26T07:08:42.005Z,47.20
2019-02-26T07:10:18.431Z,27.63
2019-02-26T07:11:51.129Z,27.80
2019-02-26T07:13:25.356Z,34.88
2019-02-26T07:14:59.002Z,29.53
2019-02-26T07:16:32.728Z,30.90
2019-02-26T07:18:07.686Z,19.73
2019-02-26T07:19:43.083Z,17.67
2019-02-26T07:21:16.833Z,17.40
2019-02-26T07:22:51.651Z,21.20
2019-02-26T07:24:27.189Z,21.27
2019-02-26T07:26:01.688Z,20.48
2019-02-26T07:27:36.077Z,20.43
2019-02-26T07:29:13.159Z,17.95
2019-02-26T07:30:47.458Z,17.35
2019-02-26T07:32:22.148Z,17.07
2019-02-26T07:33:58.223Z,22.37
2019-02-26T07:35:35.093Z,26.30
2019-02-26T07:37:11.588Z,28.32
2019-02-26T07:38:48.526Z,25.57
2019-02-26T07:40:21.235Z,22.93
2019-02-26T07:41:55.769Z,22.17
2019-02-26T07:43:31.474Z,21.35
2019-02-26T07:45:14.987Z,27.37
2019-02-26T07:46:44.859Z,18.77
2019-02-26T07:48:21.274Z,20.05
2019-02-26T07:49:58.620Z,22.00
2019-02-26T07:51:33.359Z,20.52
2019-02-26T07:53:07.339Z,16.52
2019-02-26T07:54:42.774Z,14.15
2019-02-26T07:56:17.969Z,13.65
2019-02-26T07:57:53.198Z,12.03
2019-02-26T07:59:28.007Z,13.05
2019-02-26T08:01:03.456Z,14.40
2019-02-26T08:02:37.876Z,13.30
2019-02-26T08:04:13.566Z,16.77
2019-02-26T08:05:48.022Z,17.75
2019-02-26T08:07:24.374Z,16.23
2019-02-26T08:08:58.469Z,16.62
2019-02-26T08:10:37.231Z,17.17
2019-02-26T08:12:11.375Z,20.55
2019-02-26T08:13:45.614Z,17.40
2019-02-26T08:15:20.085Z,19.92
2019-02-26T08:16:56.277Z,21.48
2019-02-26T08:18:30.345Z,22.93
2019-02-26T08:20:08.322Z,23.22
2019-02-26T08:21:45.447Z,21.80
2019-02-26T08:23:21.671Z,25.27
2019-02-26T08:24:57.912Z,20.15
2019-02-26T08:26:32.114Z,20.80
2019-02-26T08:28:06.552Z,19.02
2019-02-26T08:29:40.854Z,18.82
2019-02-26T08:31:17.526Z,18.10
2019-02-26T08:32:53.595Z,16.93
2019-02-26T08:34:27.318Z,17.37
2019-02-26T08:36:01.573Z,18.27
2019-02-26T08:37:35.788Z,17.52
2019-02-26T08:39:14.929Z,17.95
2019-02-26T08:40:46.447Z,15.13
2019-02-26T08:42:20.691Z,17.85
2019-02-26T08:43:56.501Z,17.98
2019-02-26T08:45:31.144Z,18.45
2019-02-26T08:47:08.804Z,19.75
2019-02-26T08:48:43.752Z,20.92
2019-02-26T08:50:17.803Z,21.48
2019-02-26T08:51:52.028Z,22.90
2019-02-26T08:53:28.812Z,23.65
2019-02-26T08:55:03.298Z,25.35
2019-02-26T08:56:38.785Z,24.30
2019-02-26T08:58:13.409Z,22.40
2019-02-26T08:59:49.567Z,17.92
2019-02-26T09:01:23.704Z,15.48
2019-02-26T09:02:57.988Z,23.92
2019-02-26T09:04:32.248Z,12.15
2019-02-26T09:06:13.145Z,10.60
2019-02-26T09:07:45.027Z,10.98
2019-02-26T09:09:21.012Z,10.10
2019-02-26T09:10:55.181Z,8.40
2019-02-26T09:12:29.701Z,11.12
2019-02-26T09:14:04.733Z,10.38
2019-02-26T09:15:41.397Z,8.48
2019-02-26T09:17:18.750Z,10.48
2019-02-26T09:18:52.131Z,9.50
2019-02-26T09:20:26.404Z,11.78
2019-02-26T09:22:00.701Z,9.48
2019-02-26T09:23:35.021Z,8.45
2019-02-26T09:25:11.563Z,9.43
2019-02-26T09:26:47.377Z,10.63
2019-02-26T09:28:22.410Z,10.15
2019-02-26T09:29:57.738Z,11.28
2019-02-26T09:31:32.111Z,9.18
2019-02-26T09:33:08.307Z,23.65
2019-02-26T09:34:41.805Z,12.07
2019-02-26T09:36:18.614Z,8.75
2019-02-26T09:37:53.281Z,11.75
2019-02-26T09:39:29.285Z,12.10
2019-02-26T09:41:03.434Z,10.32
2019-02-26T09:42:37.930Z,9.85
2019-02-26T09:44:11.887Z,9.47
2019-02-26T09:45:48.168Z,10.72
2019-02-26T09:47:25.996Z,10.80
2019-02-26T09:49:00.941Z,14.80
2019-02-26T09:50:36.796Z,11.53
2019-02-26T09:52:11.667Z,12.10
2019-02-26T09:53:47.189Z,10.15
2019-02-26T09:55:21.937Z,11.15
2019-02-26T09:56:56.639Z,14.70
2019-02-26T09:58:31.327Z,11.65
2019-02-26T10:00:22.897Z,12.73
2019-02-26T10:01:56.515Z,15.50
2019-02-26T10:03:36.580Z,19.25
2019-02-26T10:05:09.331Z,20.68
2019-02-26T10:06:44.948Z,27.90
2019-02-26T10:08:22.210Z,18.23
2019-02-26T10:09:56.724Z,23.25
2019-02-26T10:11:31.047Z,15.48
2019-02-26T10:13:05.272Z,16.73
2019-02-26T10:14:39.816Z,15.38
2019-02-26T10:16:14.302Z,36.68
2019-02-26T10:17:48.606Z,24.05
2019-02-26T10:19:22.896Z,33.30
2019-02-26T10:20:57.190Z,48.30
2019-02-26T10:22:33.301Z,37.85
2019-02-26T10:24:07.718Z,71.60
2019-02-26T10:25:42.069Z,23.67
2019-02-26T10:27:16.444Z,22.42
2019-02-26T10:28:57.555Z,27.05
2019-02-26T10:30:28.306Z,33.55
2019-02-26T10:32:03.249Z,23.27
2019-02-26T10:33:40.133Z,16.53
2019-02-26T10:35:16.547Z,16.23
2019-02-26T10:36:51.920Z,26.55
2019-02-26T10:38:29.626Z,18.52
2019-02-26T10:40:02.139Z,29.85
2019-02-26T10:41:37.530Z,30.62
2019-02-26T10:43:12.584Z,24.60
2019-02-26T10:44:46.868Z,30.37
2019-02-26T10:46:21.394Z,17.35
2019-02-26T10:47:56.920Z,22.00
2019-02-26T10:49:31.898Z,41.35
2019-02-26T10:51:07.196Z,24.37
2019-02-26T10:52:41.485Z,49.25
2019-02-26T10:54:17.955Z,52.98
2019-02-26T10:55:51.945Z,34.43
2019-02-26T10:57:28.887Z,13.88
2019-02-26T10:59:06.791Z,15.25
2019-02-26T11:00:40.275Z,18.57
2019-02-26T11:02:17.292Z,22.05
2019-02-26T11:03:52.871Z,18.62
2019-02-26T11:05:26.810Z,15.38
2019-02-26T11:07:02.383Z,16.55
2019-02-26T11:08:37.470Z,17.35
2019-02-26T11:10:14.602Z,11.68
2019-02-26T11:11:48.911Z,32.53
2019-02-26T11:13:25.618Z,52.30
2019-02-26T11:15:01.405Z,20.50
2019-02-26T11:16:38.499Z,23.60
2019-02-26T11:18:14.829Z,18.25
2019-02-26T11:19:48.038Z,14.07
2019-02-26T11:21:22.407Z,10.03
2019-02-26T11:22:56.713Z,10.18
2019-02-26T11:24:33.492Z,11.25
2019-02-26T11:26:09.624Z,15.83
2019-02-26T11:27:45.430Z,15.03
2019-02-26T11:29:18.676Z,12.05
2019-02-26T11:30:54.949Z,11.12
2019-02-26T11:32:30.199Z,11.00
2019-02-26T11:34:09.855Z,12.88
2019-02-26T11:35:44.349Z,18.05
2019-02-26T11:37:20.147Z,14.10
2019-02-26T11:38:54.767Z,16.20
2019-02-26T11:40:30.583Z,11.97
2019-02-26T11:42:05.014Z,14.43
2019-02-26T11:43:39.291Z,16.23
2019-02-26T11:45:21.529Z,12.10
2019-02-26T11:46:57.196Z,13.93
2019-02-26T11:48:33.220Z,12.50
2019-02-26T11:50:11.858Z,11.30
2019-02-26T11:51:46.463Z,11.78
2019-02-26T11:53:20.651Z,14.93
2019-02-26T11:54:56.293Z,16.57
2019-02-26T11:56:30.860Z,21.25
2019-02-26T11:58:07.750Z,17.60
2019-02-26T11:59:42.848Z,35.05
2019-02-26T12:01:17.394Z,25.50
2019-02-26T12:02:51.626Z,29.18
2019-02-26T12:04:26.255Z,44.15
2019-02-26T12:06:01.942Z,17.77
2019-02-26T12:07:38.071Z,18.42
2019-02-26T12:09:14.228Z,16.15
2019-02-26T12:10:48.367Z,34.48
2019-02-26T12:12:25.357Z,15.55
2019-02-26T12:13:59.259Z,18.00
2019-02-26T12:15:35.747Z,18.82
2019-02-26T12:17:09.646Z,15.75
2019-02-26T12:18:44.997Z,16.93
2019-02-26T12:20:21.875Z,14.93
2019-02-26T12:21:57.454Z,10.45
2019-02-26T12:23:34.330Z,12.35
2019-02-26T12:25:13.818Z,9.98
2019-02-26T12:26:49.870Z,11.03
2019-02-26T12:28:25.417Z,12.75
2019-02-26T12:30:00.010Z,12.28
2019-02-26T12:31:36.387Z,13.03
2019-02-26T12:33:12.461Z,11.45
2019-02-26T12:34:48.467Z,10.53
2019-02-26T12:36:23.662Z,14.53
2019-02-26T12:38:16.943Z,16.77
2019-02-26T12:39:35.384Z,13.83
2019-02-26T12:41:12.199Z,12.50
2019-02-26T12:42:45.650Z,10.98
2019-02-26T12:44:19.887Z,11.05
2019-02-26T12:45:56.096Z,8.98
2019-02-26T12:47:30.012Z,11.60
2019-02-26T12:49:05.796Z,8.10
2019-02-26T12:50:40.786Z,9.98
2019-02-26T12:52:16.066Z,9.85
2019-02-26T12:53:51.110Z,9.35
2019-02-26T12:55:29.560Z,9.20
2019-02-26T12:57:04.285Z,11.45
2019-02-26T12:58:38.176Z,13.75
2019-02-26T13:00:19.913Z,11.53
2019-02-26T13:01:54.949Z,18.07
2019-02-26T13:03:29.167Z,13.38
2019-02-26T13:05:06.557Z,9.68
2019-02-26T13:06:45.941Z,10.95
2019-02-26T13:08:20.547Z,14.53
2019-02-26T13:10:00.421Z,11.75
2019-02-26T13:11:31.683Z,15.15
2019-02-26T13:13:07.720Z,11.80
2019-02-26T13:14:42.046Z,11.45
2019-02-26T13:16:16.294Z,13.60
2019-02-26T13:17:54.331Z,10.75
2019-02-26T13:19:32.785Z,11.30
2019-02-26T13:21:03.861Z,9.05
2019-02-26T13:22:38.601Z,12.25
2019-02-26T13:24:17.559Z,12.55
2019-02-26T13:25:48.776Z,13.28
2019-02-26T13:27:23.249Z,11.68
2019-02-26T13:29:00.507Z,17.00
2019-02-26T13:30:33.532Z,10.72
2019-02-26T13:32:12.313Z,11.83
2019-02-26T13:33:43.888Z,15.68
2019-02-26T13:35:18.293Z,10.80
2019-02-26T13:36:56.461Z,12.88
2019-02-26T13:38:34.144Z,18.35
2019-02-26T13:40:07.974Z,13.30
2019-02-26T13:41:42.238Z,14.55
2019-02-26T13:43:16.522Z,13.15
2019-02-26T13:44:50.858Z,12.23
2019-02-26T13:46:25.386Z,14.80
2019-02-26T13:48:01.376Z,12.63
2019-02-26T13:49:35.532Z,16.42
2019-02-26T13:51:09.723Z,14.35
2019-02-26T13:52:44.705Z,19.87
2019-02-26T13:54:19.260Z,14.18
2019-02-26T13:55:53.822Z,15.40
2019-02-26T13:57:28.130Z,12.85
2019-02-26T13:59:02.949Z,10.88
2019-02-26T14:00:38.037Z,11.80
2019-02-26T14:02:12.295Z,11.45
2019-02-26T14:03:46.517Z,13.00
2019-02-26T14:05:21.024Z,12.80
2019-02-26T14:06:55.394Z,11.05
2019-02-26T14:08:29.602Z,11.18
2019-02-26T14:10:06.144Z,15.18
2019-02-26T14:11:40.968Z,13.58
2019-02-26T14:13:15.279Z,11.33
2019-02-26T14:14:50.486Z,10.28
2019-02-26T14:16:24.771Z,12.25
2019-02-26T14:17:59.209Z,12.63
2019-02-26T14:19:33.423Z,10.68
2019-02-26T14:21:07.730Z,10.35
2019-02-26T14:22:41.993Z,11.28
2019-02-26T14:24:16.440Z,12.85
2019-02-26T14:25:50.669Z,13.28
2019-02-26T14:27:24.991Z,13.53
2019-02-26T14:28:59.278Z,14.20
2019-02-26T14:30:34.003Z,16.07
2019-02-26T14:32:08.207Z,14.05
2019-02-26T14:33:42.497Z,14.87
2019-02-26T14:35:16.958Z,14.50
2019-02-26T14:36:51.547Z,24.50
2019-02-26T14:38:25.767Z,20.30
2019-02-26T14:39:59.988Z,18.75
2019-02-26T14:41:34.234Z,17.45
2019-02-26T14:43:08.990Z,17.17
2019-02-26T14:44:43.280Z,18.35
2019-02-26T14:46:17.505Z,28.23
2019-02-26T14:47:51.728Z,41.73
2019-02-26T14:49:26.337Z,22.45
2019-02-26T14:51:00.570Z,21.45
2019-02-26T14:52:34.797Z,18.62
2019-02-26T14:54:09.037Z,31.95
2019-02-26T14:55:43.591Z,33.50
2019-02-26T14:57:17.936Z,18.87
2019-02-26T14:58:52.425Z,20.55
2019-02-26T15:00:34.069Z,21.57
2019-02-26T15:02:08.507Z,18.65
2019-02-26T15:03:42.801Z,14.60
2019-02-26T15:05:17.314Z,22.20
2019-02-26T15:06:51.597Z,25.68
2019-02-26T15:08:26.144Z,26.40
2019-02-26T15:10:00.368Z,35.73
2019-02-26T15:11:34.721Z,27.77
2019-02-26T15:13:09.147Z,62.25
2019-02-26T15:14:44.179Z,53.83
2019-02-26T15:16:19.394Z,54.60
2019-02-26T15:17:53.831Z,53.98
2019-02-26T15:19:28.068Z,34.40
2019-02-26T15:21:03.002Z,29.45
2019-02-26T15:22:37.210Z,39.10
2019-02-26T15:24:11.524Z,38.53
2019-02-26T15:25:45.882Z,34.43
2019-02-26T15:27:20.341Z,25.45
2019-02-26T15:28:54.976Z,219.15
2019-02-26T15:30:29.256Z,55.85
2019-02-26T15:32:03.533Z,38.85
2019-02-26T15:33:38.666Z,36.85
2019-02-26T15:35:13.266Z,25.57
2019-02-26T15:36:47.914Z,21.00
2019-02-26T15:38:22.165Z,21.48
2019-02-26T15:39:56.714Z,24.57
2019-02-26T15:41:30.977Z,21.05
2019-02-26T15:43:05.247Z,18.32
2019-02-26T15:44:39.690Z,17.70
2019-02-26T15:46:14.075Z,16.10
2019-02-26T15:47:48.442Z,19.40
2019-02-26T15:49:22.747Z,18.00
2019-02-26T15:50:58.666Z,17.07
2019-02-26T15:52:33.820Z,21.20
2019-02-26T15:54:08.117Z,19.90
2019-02-26T15:55:42.437Z,17.77
2019-02-26T15:57:16.892Z,17.70
2019-02-26T15:58:51.466Z,35.40
2019-02-26T16:00:27.516Z,18.55
2019-02-26T16:02:01.690Z,14.47
2019-02-26T16:03:36.109Z,17.67
2019-02-26T16:05:11.682Z,17.17
2019-02-26T16:06:45.918Z,16.87
2019-02-26T16:08:20.505Z,15.83
2019-02-26T16:09:54.824Z,17.75
2019-02-26T16:11:29.330Z,16.85
2019-02-26T16:13:06.340Z,20.88
2019-02-26T16:14:40.556Z,16.02
2019-02-26T16:16:15.089Z,17.60
2019-02-26T16:17:49.661Z,17.70
2019-02-26T16:19:24.011Z,19.45
2019-02-26T16:20:58.314Z,16.85
2019-02-26T16:22:33.708Z,15.93
2019-02-26T16:24:10.476Z,15.72
2019-02-26T16:25:44.744Z,17.30
2019-02-26T16:27:19.788Z,20.25
2019-02-26T16:28:56.422Z,22.20
2019-02-26T16:30:31.012Z,17.75
2019-02-26T16:32:05.642Z,19.67
2019-02-26T16:33:39.981Z,19.10
2019-02-26T16:35:14.871Z,21.90
2019-02-26T16:36:49.266Z,20.60
2019-02-26T16:38:23.521Z,19.17
2019-02-26T16:40:00.467Z,25.23
2019-02-26T16:41:38.049Z,18.98
2019-02-26T16:43:14.863Z,19.92
2019-02-26T16:44:48.421Z,18.77
2019-02-26T16:46:22.674Z,19.90
2019-02-26T16:47:57.488Z,18.92
2019-02-26T16:49:32.178Z,21.25
2019-02-26T16:51:06.532Z,17.92
2019-02-26T16:52:40.756Z,19.85
2019-02-26T16:54:16.586Z,17.82
2019-02-26T16:55:51.632Z,18.90
2019-02-26T16:59:26.462Z,17.77
2019-02-26T17:01:01.009Z,23.05
2019-02-26T17:02:35.291Z,19.57
2019-02-26T17:04:09.593Z,19.07
2019-02-26T17:05:47.252Z,20.23
2019-02-26T17:07:20.003Z,24.63
2019-02-26T17:08:54.251Z,20.20
2019-02-26T17:10:30.237Z,20.20
2019-02-26T17:12:05.025Z,20.97
2019-02-26T17:13:42.691Z,22.62
2019-02-26T17:15:27.166Z,21.27
2019-02-26T17:17:01.547Z,22.48
2019-02-26T17:18:37.405Z,22.65
2019-02-26T17:20:12.087Z,21.87
2019-02-26T17:21:49.959Z,23.32
2019-02-26T17:23:23.514Z,18.82
2019-02-26T17:24:57.808Z,20.12
2019-02-26T17:26:33.337Z,21.00
2019-02-26T17:28:09.471Z,26.70
2019-02-26T17:29:43.722Z,23.27
2019-02-26T17:31:18.108Z,21.23
2019-02-26T17:32:52.730Z,20.50
2019-02-26T17:34:26.972Z,21.10
2019-02-26T17:36:02.009Z,21.23
2019-02-26T17:37:36.893Z,19.10
2019-02-26T17:39:12.097Z,19.90
2019-02-26T17:40:46.339Z,20.30
2019-02-26T17:42:20.695Z,20.50
2019-02-26T17:43:56.829Z,22.00
2019-02-26T17:45:34.916Z,26.52
2019-02-26T17:47:09.664Z,24.72
2019-02-26T17:48:43.943Z,22.17
2019-02-26T17:50:21.293Z,26.60
2019-02-26T17:51:56.315Z,22.02
2019-02-26T17:53:30.604Z,25.10
2019-02-26T17:55:09.208Z,25.40
2019-02-26T17:56:43.664Z,27.17
2019-02-26T17:58:19.527Z,25.85
2019-02-26T17:59:53.786Z,26.85
2019-02-26T18:01:28.517Z,22.75
2019-02-26T18:03:06.462Z,25.83
2019-02-26T18:04:38.513Z,29.60
2019-02-26T18:06:13.165Z,27.80
2019-02-26T18:07:47.447Z,28.75
2019-02-26T18:09:21.710Z,28.05
2019-02-26T18:10:56.054Z,26.70
2019-02-26T18:12:30.341Z,22.32
2019-02-26T18:14:04.913Z,25.30
2019-02-26T18:15:39.181Z,25.85
2019-02-26T18:17:14.222Z,21.87
2019-02-26T18:18:48.416Z,25.60
2019-02-26T18:20:28.048Z,26.75
2019-02-26T18:21:59.618Z,26.73
2019-02-26T18:23:37.536Z,27.13
2019-02-26T18:25:21.315Z,27.82
2019-02-26T18:26:55.618Z,27.02
2019-02-26T18:28:30.493Z,27.25
2019-02-26T18:30:10.819Z,28.85
2019-02-26T18:31:46.698Z,24.92
2019-02-26T18:33:20.990Z,23.47
2019-02-26T18:34:55.215Z,26.55
2019-02-26T18:36:29.723Z,26.40
2019-02-26T18:38:04.019Z,25.95
2019-02-26T18:39:38.334Z,23.12
2019-02-26T18:41:12.592Z,23.07
2019-02-26T18:42:47.763Z,27.13
2019-02-26T18:44:22.097Z,26.35
2019-02-26T18:45:58.728Z,28.80
2019-02-26T18:47:32.734Z,25.55
2019-02-26T18:49:07.693Z,26.20
2019-02-26T18:50:41.893Z,24.32
2019-02-26T18:52:16.121Z,22.35
2019-02-26T18:53:50.400Z,25.82
2019-02-26T18:55:28.357Z,26.50
2019-02-26T18:57:02.274Z,27.45
2019-02-26T18:58:36.602Z,27.40
2019-02-26T19:00:13.968Z,27.00
2019-02-26T19:01:48.620Z,26.05
2019-02-26T19:03:24.916Z,28.52
2019-02-26T19:04:58.875Z,27.20
2019-02-26T19:06:33.066Z,26.33
2019-02-26T19:08:07.713Z,28.38
2019-02-26T19:09:42.713Z,35.00
2019-02-26T19:11:17.793Z,32.50
2019-02-26T19:12:52.027Z,29.82
2019-02-26T19:14:26.667Z,29.67
2019-02-26T19:16:00.898Z,30.10
2019-02-26T19:17:35.120Z,36.58
2019-02-26T19:19:09.761Z,37.38
2019-02-26T19:20:48.797Z,32.65
2019-02-26T19:22:20.493Z,30.55
2019-02-26T19:23:54.789Z,31.52
2019-02-26T19:25:29.101Z,32.60
2019-02-26T19:27:03.753Z,30.30
2019-02-26T19:28:37.990Z,32.85
2019-02-26T19:30:14.711Z,32.23
2019-02-26T19:31:49.022Z,33.88
2019-02-26T19:33:23.636Z,32.98
2019-02-26T19:34:58.709Z,35.03
2019-02-26T19:36:33.707Z,32.33
2019-02-26T19:38:08.009Z,33.85
2019-02-26T19:39:42.440Z,34.83
2019-02-26T19:41:16.648Z,31.17
2019-02-26T19:42:52.886Z,30.92
2019-02-26T19:44:26.812Z,30.82
2019-02-26T19:46:02.252Z,30.77
2019-02-26T19:47:36.649Z,32.90
2019-02-26T19:49:10.864Z,30.10
2019-02-26T19:50:47.892Z,36.17
2019-02-26T19:52:21.526Z,33.83
2019-02-26T19:53:55.890Z,36.35
2019-02-26T19:55:33.277Z,38.08
2019-02-26T19:57:07.555Z,39.65
2019-02-26T19:58:42.135Z,35.45
2019-02-26T20:00:19.701Z,35.88
2019-02-26T20:01:53.529Z,36.55
2019-02-26T20:03:39.088Z,37.45
2019-02-26T20:05:09.511Z,36.90
2019-02-26T20:06:43.337Z,35.28
2019-02-26T20:08:17.574Z,38.28
2019-02-26T20:09:51.889Z,39.67
2019-02-26T20:11:26.767Z,40.80
2019-02-26T20:13:01.674Z,40.83
2019-02-26T20:14:36.353Z,36.65
2019-02-26T20:16:10.665Z,36.13
2019-02-26T20:17:48.869Z,38.65
2019-02-26T20:19:21.708Z,39.38
2019-02-26T20:20:56.079Z,39.88
2019-02-26T20:22:33.327Z,41.05
2019-02-26T20:24:06.479Z,37.78
2019-02-26T20:25:42.757Z,35.95
2019-02-26T20:27:16.652Z,35.78
2019-02-26T20:28:50.934Z,35.78
2019-02-26T20:30:25.765Z,33.10